createdAt,value
2019-03-04T00:00:27.947Z,55.38
2019-03-04T00:02:54.745Z,55.41
2019-03-04T00:05:21.471Z,55.82
2019-03-04T00:07:48.190Z,55.75
2019-03-04T00:10:15.008Z,55.56
2019-03-04T00:12:41.714Z,55.43
2019-03-04T00:15:08.554Z,55.41
2019-03-04T00:17:35.637Z,55.54
2019-03-04T00:20:05.489Z,55.61
2019-03-04T00:22:32.225Z,55.25
2019-03-04T00:24:59.024Z,55.50
2019-03-04T00:27:25.767Z,55.61
2019-03-04T00:29:52.500Z,55.76
2019-03-04T00:32:19.267Z,55.77
2019-03-04T00:34:45.994Z,55.68
2019-03-04T00:37:12.748Z,55.83
2019-03-04T00:39:39.653Z,55.90
2019-03-04T00:42:06.404Z,55.72
2019-03-04T00:44:33.143Z,55.73
2019-03-04T00:46:59.913Z,55.69
2019-03-04T00:49:26.642Z,55.40
2019-03-04T00:51:54.103Z,55.22
2019-03-04T00:54:20.873Z,55.06
2019-03-04T00:56:47.617Z,55.05
2019-03-04T00:59:14.341Z,55.22
2019-03-04T01:01:41.094Z,55.21
2019-03-04T01:04:07.835Z,55.12
2019-03-04T01:06:34.621Z,55.25
2019-03-04T01:09:01.360Z,55.34
2019-03-04T01:11:28.088Z,55.07
2019-03-04T01:13:54.900Z,54.96
2019-03-04T01:16:21.621Z,55.09
2019-03-04T01:18:48.357Z,55.30
2019-03-04T01:21:15.138Z,55.26
2019-03-04T01:23:41.873Z,55.23
2019-03-04T01:26:08.666Z,55.00
2019-03-04T01:28:35.396Z,54.84
2019-03-04T01:31:02.148Z,54.88
2019-03-04T01:33:28.932Z,55.13
2019-03-04T01:35:55.667Z,55.18
2019-03-04T01:38:22.415Z,55.30
2019-03-04T01:40:52.460Z,55.37
2019-03-04T01:43:19.181Z,55.35
2019-03-04T01:45:45.929Z,55.40
2019-03-04T01:48:12.709Z,55.69
2019-03-04T01:50:39.422Z,55.70
2019-03-04T01:53:06.211Z,55.89
2019-03-04T01:55:32.935Z,55.70
2019-03-04T01:57:59.669Z,55.81
2019-03-04T02:00:26.551Z,55.87
2019-03-04T02:02:53.278Z,55.95
2019-03-04T02:05:20.009Z,56.04
2019-03-04T02:07:46.800Z,56.04
2019-03-04T02:10:18.407Z,56.31
2019-03-04T02:12:46.180Z,56.20
2019-03-04T02:15:18.191Z,56.08
2019-03-04T02:17:45.141Z,56.00
2019-03-04T02:20:16.708Z,56.01
2019-03-04T02:22:44.126Z,56.21
2019-03-04T02:25:13.838Z,56.41
2019-03-04T02:27:51.473Z,56.35
2019-03-04T02:30:25.780Z,56.28
2019-03-04T02:32:52.522Z,56.44
2019-03-04T02:35:19.223Z,56.64
2019-03-04T02:37:46.026Z,56.68
2019-03-04T02:40:12.770Z,56.73
2019-03-04T02:42:39.531Z,56.56
2019-03-04T02:45:17.706Z,56.41
2019-03-04T02:47:44.524Z,56.33
2019-03-04T02:50:11.339Z,56.43
2019-03-04T02:52:38.110Z,56.41
2019-03-04T02:55:06.530Z,56.25
2019-03-04T02:57:33.398Z,56.12
2019-03-04T03:00:00.214Z,56.03
2019-03-04T03:02:27.239Z,55.98
2019-03-04T03:04:54.064Z,56.07
2019-03-04T03:07:20.799Z,56.09
2019-03-04T03:09:47.623Z,56.06
2019-03-04T03:12:14.481Z,56.02
2019-03-04T03:14:41.207Z,55.93
2019-03-04T03:17:07.957Z,56.00
2019-03-04T03:19:34.810Z,55.95
2019-03-04T03:22:01.526Z,55.88
2019-03-04T03:24:28.337Z,55.94
2019-03-04T03:26:55.074Z,55.92
2019-03-04T03:29:21.810Z,55.93
2019-03-04T03:31:48.694Z,55.90
2019-03-04T03:34:15.423Z,55.85
2019-03-04T03:36:42.175Z,55.80
2019-03-04T03:39:08.940Z,55.86
2019-03-04T03:41:35.653Z,55.91
2019-03-04T03:44:02.704Z,55.77
2019-03-04T03:46:29.455Z,55.73
2019-03-04T03:48:56.184Z,55.85
2019-03-04T03:51:22.932Z,56.03
2019-03-04T03:53:49.656Z,55.83
2019-03-04T03:56:16.460Z,55.92
2019-03-04T03:58:43.193Z,56.13
2019-03-04T04:01:09.938Z,56.27
2019-03-04T04:03:36.704Z,56.37
2019-03-04T04:06:03.435Z,56.28
2019-03-04T04:08:30.226Z,56.21
2019-03-04T04:10:56.953Z,56.19
2019-03-04T04:13:23.680Z,56.04
2019-03-04T04:15:50.480Z,56.13
2019-03-04T04:18:17.217Z,56.35
2019-03-04T04:20:43.943Z,56.50
2019-03-04T04:23:10.738Z,56.61
2019-03-04T04:25:37.492Z,56.22
2019-03-04T04:28:04.221Z,56.08
2019-03-04T04:30:31.005Z,56.07
2019-03-04T04:32:57.748Z,55.98
2019-03-04T04:35:24.471Z,56.20
2019-03-04T04:37:51.274Z,56.27
2019-03-04T04:40:17.994Z,56.27
2019-03-04T04:42:44.998Z,56.19
2019-03-04T04:45:12.059Z,56.23
2019-03-04T04:47:41.193Z,56.35
2019-03-04T04:50:18.552Z,56.25
2019-03-04T04:52:45.253Z,56.35
2019-03-04T04:55:12.027Z,56.69
2019-03-04T04:57:38.762Z,56.75
2019-03-04T05:00:15.638Z,56.80
2019-03-04T05:02:42.516Z,56.91
2019-03-04T05:05:09.331Z,56.92
2019-03-04T05:07:36.041Z,56.84
2019-03-04T05:10:13.430Z,56.71
2019-03-04T05:12:40.157Z,56.67
2019-03-04T05:15:10.659Z,56.74
2019-03-04T05:17:39.650Z,56.93
2019-03-04T05:20:16.068Z,56.64
2019-03-04T05:22:42.821Z,56.76
2019-03-04T05:25:09.649Z,56.44
2019-03-04T05:27:36.430Z,56.56
2019-03-04T05:30:08.085Z,56.81
2019-03-04T05:32:34.814Z,56.93
2019-03-04T05:35:01.569Z,57.08
2019-03-04T05:37:28.309Z,56.82
2019-03-04T05:39:55.205Z,56.70
2019-03-04T05:42:21.935Z,56.59
2019-03-04T05:44:48.739Z,56.96
2019-03-04T05:47:15.627Z,57.01
2019-03-04T05:49:42.338Z,56.88
2019-03-04T05:52:09.062Z,56.90
2019-03-04T05:54:35.833Z,56.61
2019-03-04T05:57:02.571Z,56.32
2019-03-04T05:59:29.287Z,56.37
2019-03-04T06:02:01.487Z,56.09
2019-03-04T06:04:28.212Z,56.14
2019-03-04T06:06:54.942Z,56.10
2019-03-04T06:09:22.143Z,56.27
2019-03-04T06:11:48.885Z,56.45
2019-03-04T06:14:15.613Z,56.49
2019-03-04T06:16:47.193Z,56.55
2019-03-04T06:19:12.745Z,56.44
2019-03-04T06:21:50.069Z,56.47
2019-03-04T06:24:18.608Z,56.47
2019-03-04T06:26:45.360Z,56.37
2019-03-04T06:29:14.008Z,56.70
2019-03-04T06:31:40.746Z,56.74
2019-03-04T06:34:07.468Z,56.80
2019-03-04T06:36:34.290Z,56.96
2019-03-04T06:39:09.993Z,56.91
2019-03-04T06:41:36.775Z,56.79
2019-03-04T06:44:03.507Z,56.84
2019-03-04T06:46:30.294Z,57.10
2019-03-04T06:48:57.106Z,57.09
2019-03-04T06:51:31.360Z,56.87
2019-03-04T06:54:12.494Z,56.70
2019-03-04T06:56:56.160Z,56.95
2019-03-04T06:59:47.581Z,56.85
2019-03-04T07:02:31.650Z,57.04
2019-03-04T07:05:44.448Z,56.98
2019-03-04T07:08:37.892Z,57.24
2019-03-04T07:11:04.975Z,57.37
2019-03-04T07:13:31.708Z,57.21
2019-03-04T07:15:58.442Z,57.31
2019-03-04T07:18:25.257Z,57.24
2019-03-04T07:20:51.968Z,57.05
2019-03-04T07:23:18.709Z,57.01
2019-03-04T07:25:45.494Z,57.67
2019-03-04T07:28:12.213Z,57.55
2019-03-04T07:30:38.942Z,57.73
2019-03-04T07:33:05.757Z,59.74
2019-03-04T07:35:32.469Z,60.36
2019-03-04T07:38:24.565Z,60.71
2019-03-04T07:40:51.286Z,60.26
2019-03-04T07:43:18.003Z,60.85
2019-03-04T07:45:44.915Z,60.92
2019-03-04T07:48:11.685Z,60.64
2019-03-04T07:50:38.532Z,60.27
2019-03-04T07:53:05.300Z,60.04
2019-03-04T07:55:32.023Z,60.44
2019-03-04T07:57:58.812Z,60.12
2019-03-04T08:00:25.545Z,59.80
2019-03-04T08:02:52.288Z,60.17
2019-03-04T08:05:19.079Z,60.26
2019-03-04T08:07:52.971Z,60.03
2019-03-04T08:10:36.849Z,60.08
2019-03-04T08:13:36.340Z,60.20
2019-03-04T08:16:03.377Z,60.11
2019-03-04T08:18:30.137Z,59.96
2019-03-04T08:20:56.936Z,59.60
2019-03-04T08:23:23.666Z,59.78
2019-03-04T08:25:50.472Z,59.61
2019-03-04T08:28:17.293Z,59.38
2019-03-04T08:30:44.028Z,59.49
2019-03-04T08:33:11.269Z,58.74
2019-03-04T08:35:38.060Z,58.75
2019-03-04T08:38:04.797Z,58.94
2019-03-04T08:40:31.535Z,58.75
2019-03-04T08:42:58.397Z,58.46
2019-03-04T08:45:25.227Z,58.21
2019-03-04T08:47:51.997Z,58.20
2019-03-04T08:50:18.876Z,57.92
2019-03-04T08:52:45.608Z,57.76
2019-03-04T08:55:17.104Z,57.68
2019-03-04T08:57:45.299Z,57.61
2019-03-04T09:00:25.000Z,57.25
2019-03-04T09:02:51.819Z,57.04
2019-03-04T09:05:18.565Z,57.03
2019-03-04T09:07:45.711Z,57.02
2019-03-04T09:10:22.118Z,57.05
2019-03-04T09:12:48.882Z,57.21
2019-03-04T09:15:16.231Z,57.12
2019-03-04T09:17:43.081Z,57.11
2019-03-04T09:20:12.539Z,56.90
2019-03-04T09:22:39.354Z,56.84
2019-03-04T09:25:17.434Z,56.74
2019-03-04T09:27:45.432Z,56.64
2019-03-04T09:30:14.981Z,56.97
2019-03-04T09:32:41.711Z,56.98
2019-03-04T09:35:15.207Z,56.81
2019-03-04T09:37:42.048Z,56.78
2019-03-04T09:40:13.961Z,56.93
2019-03-04T09:42:40.695Z,57.06
2019-03-04T09:45:11.234Z,56.88
2019-03-04T09:47:38.018Z,56.55
2019-03-04T09:50:10.221Z,56.17
2019-03-04T09:52:36.957Z,55.80
2019-03-04T09:55:04.471Z,55.66
2019-03-04T09:57:31.183Z,55.65
2019-03-04T09:59:57.926Z,55.44
2019-03-04T10:02:24.901Z,57.00
2019-03-04T10:05:13.388Z,55.34
2019-03-04T10:07:57.823Z,55.27
2019-03-04T10:10:35.893Z,54.99
2019-03-04T10:13:10.925Z,55.04
2019-03-04T10:15:51.427Z,55.23
2019-03-04T10:18:45.676Z,55.15
2019-03-04T10:21:51.964Z,56.24
2019-03-04T10:24:29.888Z,54.69
2019-03-04T10:27:17.075Z,54.44
2019-03-04T10:30:17.595Z,54.52
2019-03-04T10:33:04.669Z,54.32
2019-03-04T10:35:51.773Z,53.91
2019-03-04T10:38:29.519Z,53.90
2019-03-04T10:41:10.873Z,53.56
2019-03-04T10:44:07.252Z,53.97
2019-03-04T10:46:53.015Z,53.58
2019-03-04T10:49:19.880Z,53.92
2019-03-04T10:51:46.789Z,53.55
2019-03-04T10:54:13.551Z,53.40
2019-03-04T10:56:42.377Z,53.28
2019-03-04T10:59:09.004Z,53.15
2019-03-04T11:01:35.747Z,53.05
2019-03-04T11:04:02.501Z,52.76
2019-03-04T11:06:29.296Z,52.60
2019-03-04T11:08:56.011Z,52.97
2019-03-04T11:11:29.468Z,52.77
2019-03-04T11:13:51.375Z,53.26
2019-03-04T11:16:18.119Z,55.05
2019-03-04T11:18:44.895Z,52.72
2019-03-04T11:21:11.630Z,51.50
2019-03-04T11:23:38.534Z,50.15
2019-03-04T11:26:05.254Z,49.35
2019-03-04T11:28:32.021Z,47.61
2019-03-04T11:30:58.833Z,46.53
2019-03-04T11:33:25.981Z,45.55
2019-03-04T11:35:52.715Z,44.53
2019-03-04T11:38:45.173Z,43.95
2019-03-04T11:41:16.563Z,43.92
2019-03-04T11:43:43.463Z,43.71
2019-03-04T11:46:10.195Z,43.44
2019-03-04T11:48:36.923Z,43.30
2019-03-04T11:51:03.739Z,43.55
2019-03-04T11:53:30.527Z,42.68
2019-03-04T11:55:57.274Z,42.93
2019-03-04T11:58:24.163Z,42.29
2019-03-04T12:00:50.904Z,42.01
2019-03-04T12:03:17.717Z,42.03
2019-03-04T12:05:44.567Z,41.82
2019-03-04T12:08:11.311Z,41.74
2019-03-04T12:10:38.112Z,41.74
2019-03-04T12:13:05.835Z,41.61
2019-03-04T12:15:32.663Z,41.37
2019-03-04T12:17:59.465Z,41.05
2019-03-04T12:20:26.182Z,40.93
2019-03-04T12:22:53.074Z,40.55
2019-03-04T12:25:20.323Z,40.42
2019-03-04T12:27:47.154Z,39.99
2019-03-04T12:30:21.982Z,39.99
2019-03-04T12:32:51.002Z,39.90
2019-03-04T12:35:18.539Z,40.01
2019-03-04T12:37:45.452Z,39.57
2019-03-04T12:40:22.379Z,39.32
2019-03-04T12:42:54.596Z,38.92
2019-03-04T12:45:22.721Z,38.92
2019-03-04T12:47:49.660Z,39.54
2019-03-04T12:50:27.332Z,39.30
2019-03-04T12:52:57.510Z,39.12
2019-03-04T12:55:24.485Z,39.33
2019-03-04T12:57:51.263Z,39.77
2019-03-04T13:00:25.669Z,40.03
2019-03-04T13:02:57.477Z,40.13
2019-03-04T13:05:20.998Z,40.24
2019-03-04T13:07:47.821Z,40.37
2019-03-04T13:10:16.375Z,40.57
2019-03-04T13:12:43.486Z,40.79
2019-03-04T13:15:24.240Z,41.28
2019-03-04T13:17:51.030Z,41.49
2019-03-04T13:20:20.891Z,41.94
2019-03-04T13:22:47.637Z,41.93
2019-03-04T13:25:14.441Z,42.16
2019-03-04T13:27:42.098Z,42.16
2019-03-04T13:30:13.844Z,42.37
2019-03-04T13:32:40.765Z,42.91
2019-03-04T13:35:23.972Z,43.36
2019-03-04T13:37:43.459Z,43.67
2019-03-04T13:40:12.617Z,43.72
2019-03-04T13:42:39.346Z,44.75
2019-03-04T13:45:15.955Z,45.36
2019-03-04T13:47:43.222Z,45.54
2019-03-04T13:50:19.428Z,45.82
2019-03-04T13:52:46.157Z,45.36
2019-03-04T13:55:14.698Z,44.91
2019-03-04T13:57:41.559Z,45.22
2019-03-04T14:00:13.399Z,45.17
2019-03-04T14:02:40.124Z,45.61
2019-03-04T14:05:10.600Z,45.85
2019-03-04T14:07:37.428Z,45.89
2019-03-04T14:10:15.614Z,46.40
2019-03-04T14:12:42.372Z,46.50
2019-03-04T14:15:23.256Z,46.61
2019-03-04T14:17:49.994Z,46.62
2019-03-04T14:20:16.701Z,47.19
2019-03-04T14:22:43.511Z,47.90
2019-03-04T14:25:12.282Z,47.89
2019-03-04T14:27:39.022Z,48.26
2019-03-04T14:30:16.191Z,48.56
2019-03-04T14:32:43.013Z,48.79
2019-03-04T14:35:10.054Z,49.25
2019-03-04T14:37:36.824Z,49.50
2019-03-04T14:40:08.371Z,50.00
2019-03-04T14:42:35.265Z,49.50
2019-03-04T14:45:06.072Z,49.62
2019-03-04T14:47:32.806Z,49.90
2019-03-04T14:50:09.427Z,50.25
2019-03-04T14:52:28.230Z,50.46
2019-03-04T14:54:55.035Z,50.73
2019-03-04T14:57:22.731Z,51.16
2019-03-04T14:59:49.455Z,51.36
2019-03-04T15:02:16.326Z,51.67
2019-03-04T15:04:43.069Z,52.07
2019-03-04T15:07:09.791Z,52.34
2019-03-04T15:09:36.571Z,52.22
2019-03-04T15:12:03.296Z,52.49
2019-03-04T15:14:30.037Z,52.42
2019-03-04T15:17:03.250Z,52.62
2019-03-04T15:19:25.380Z,52.39
2019-03-04T15:21:52.108Z,52.47
2019-03-04T15:24:19.040Z,52.46
2019-03-04T15:26:45.770Z,52.69
2019-03-04T15:29:12.487Z,52.85
2019-03-04T15:31:39.292Z,53.08
2019-03-04T15:34:06.010Z,52.99
2019-03-04T15:36:32.744Z,53.21
2019-03-04T15:38:59.544Z,53.42
2019-03-04T15:41:26.285Z,53.72
2019-03-04T15:43:53.015Z,54.34
2019-03-04T15:46:19.827Z,54.68
2019-03-04T15:48:46.568Z,55.31
2019-03-04T15:51:13.321Z,55.19
2019-03-04T15:53:40.139Z,55.66
2019-03-04T15:56:06.860Z,55.70
2019-03-04T15:58:33.640Z,55.90
2019-03-04T16:01:02.349Z,56.24
2019-03-04T16:03:29.263Z,56.45
2019-03-04T16:05:56.117Z,57.02
2019-03-04T16:08:22.888Z,57.16
2019-03-04T16:10:49.604Z,57.48
2019-03-04T16:13:16.349Z,58.05
2019-03-04T16:15:45.854Z,58.48
2019-03-04T16:18:12.590Z,58.40
2019-03-04T16:20:39.327Z,58.59
2019-03-04T16:23:06.195Z,58.67
2019-03-04T16:25:33.339Z,58.54
2019-03-04T16:28:08.002Z,58.77
2019-03-04T16:30:34.838Z,59.19
2019-03-04T16:33:01.715Z,59.70
2019-03-04T16:35:28.459Z,59.96
2019-03-04T16:37:55.204Z,60.20
2019-03-04T16:40:23.998Z,60.30
2019-03-04T16:42:50.739Z,60.37
2019-03-04T16:45:22.048Z,60.95
2019-03-04T16:47:49.518Z,60.64
2019-03-04T16:50:24.534Z,60.49
2019-03-04T16:53:01.730Z,60.86
2019-03-04T16:55:28.458Z,61.10
2019-03-04T16:57:55.199Z,61.00
2019-03-04T17:00:22.022Z,61.32
2019-03-04T17:02:49.269Z,60.97
2019-03-04T17:05:17.565Z,60.79
2019-03-04T17:07:45.805Z,60.89
2019-03-04T17:10:18.284Z,61.20
2019-03-04T17:12:45.195Z,61.38
2019-03-04T17:15:20.327Z,61.49
2019-03-04T17:17:47.411Z,61.66
2019-03-04T17:20:16.535Z,62.00
2019-03-04T17:22:43.392Z,62.11
2019-03-04T17:25:22.043Z,62.18
2019-03-04T17:27:48.875Z,62.35
2019-03-04T17:30:19.578Z,62.58
2019-03-04T17:32:46.422Z,62.62
2019-03-04T17:35:17.764Z,62.78
2019-03-04T17:37:44.905Z,62.59
2019-03-04T17:40:16.354Z,62.64
2019-03-04T17:42:43.086Z,62.41
2019-03-04T17:45:13.182Z,62.54
2019-03-04T17:47:39.925Z,62.51
2019-03-04T17:50:17.550Z,62.70
2019-03-04T17:52:44.397Z,62.34
2019-03-04T17:55:13.541Z,61.69
2019-03-04T17:57:40.363Z,61.57
2019-03-04T18:00:11.787Z,61.64
2019-03-04T18:02:38.554Z,62.22
2019-03-04T18:05:08.500Z,63.76
2019-03-04T18:07:35.956Z,63.75
2019-03-04T18:10:07.440Z,63.81
2019-03-04T18:12:34.233Z,63.92
2019-03-04T18:15:00.963Z,64.04
2019-03-04T18:17:28.302Z,64.13
2019-03-04T18:19:55.054Z,63.80
2019-03-04T18:22:21.794Z,63.71
2019-03-04T18:24:48.603Z,63.72
2019-03-04T18:27:15.386Z,63.86
2019-03-04T18:29:53.353Z,64.65
2019-03-04T18:32:37.461Z,65.21
2019-03-04T18:35:38.276Z,64.83
2019-03-04T18:38:30.004Z,64.76
2019-03-04T18:41:17.508Z,65.10
2019-03-04T18:44:07.780Z,65.23
2019-03-04T18:46:49.212Z,65.06
2019-03-04T18:49:15.952Z,64.66
2019-03-04T18:51:42.680Z,64.71
2019-03-04T18:54:09.617Z,64.73
2019-03-04T18:56:36.395Z,64.66
2019-03-04T18:59:04.852Z,64.47
2019-03-04T19:01:32.026Z,64.50
2019-03-04T19:03:58.884Z,64.44
2019-03-04T19:06:25.804Z,64.44
2019-03-04T19:08:52.708Z,64.45
2019-03-04T19:11:19.704Z,64.39
2019-03-04T19:13:46.515Z,64.78
2019-03-04T19:16:13.254Z,65.12
2019-03-04T19:18:40.110Z,64.86
2019-03-04T19:21:07.026Z,64.64
2019-03-04T19:23:33.781Z,64.39
2019-03-04T19:26:00.730Z,64.65
2019-03-04T19:28:27.520Z,64.97
2019-03-04T19:30:54.265Z,64.71
2019-03-04T19:33:21.185Z,65.02
2019-03-04T19:35:47.943Z,64.67
2019-03-04T19:38:14.798Z,64.70
2019-03-04T19:40:41.611Z,65.51
2019-03-04T19:43:08.389Z,65.33
2019-03-04T19:45:35.160Z,65.99
2019-03-04T19:48:01.977Z,65.79
2019-03-04T19:50:29.125Z,65.84
2019-03-04T19:52:55.854Z,66.36
2019-03-04T19:55:22.690Z,66.06
2019-03-04T19:57:49.566Z,66.51
2019-03-04T20:00:25.031Z,66.77
2019-03-04T20:02:51.667Z,66.75
2019-03-04T20:05:19.334Z,66.93
2019-03-04T20:07:46.536Z,66.92
2019-03-04T20:10:15.759Z,67.13
2019-03-04T20:12:42.649Z,67.17
2019-03-04T20:15:29.178Z,67.19
2019-03-04T20:17:56.683Z,66.88
2019-03-04T20:20:23.680Z,67.55
2019-03-04T20:22:50.582Z,67.70
2019-03-04T20:25:17.765Z,67.32
2019-03-04T20:27:44.910Z,66.99
2019-03-04T20:30:16.517Z,63.36
2019-03-04T20:32:43.243Z,63.12
2019-03-04T20:35:12.794Z,55.13
2019-03-04T20:37:44.673Z,54.24
2019-03-04T20:40:11.548Z,47.24
2019-03-04T20:42:38.399Z,50.99
2019-03-04T20:45:10.572Z,53.36
2019-03-04T20:47:37.320Z,52.26
2019-03-04T20:50:09.287Z,54.77
2019-03-04T20:52:36.057Z,55.21
2019-03-04T20:55:06.464Z,56.44
2019-03-04T20:57:33.206Z,57.58
2019-03-04T20:59:59.938Z,59.06
2019-03-04T21:02:27.299Z,60.57
2019-03-04T21:04:54.017Z,60.60
2019-03-04T21:07:20.880Z,61.01
2019-03-04T21:09:47.655Z,60.97
2019-03-04T21:12:14.392Z,61.05
2019-03-04T21:14:41.357Z,60.75
2019-03-04T21:17:08.258Z,60.39
2019-03-04T21:19:35.003Z,60.23
2019-03-04T21:22:01.781Z,60.23
2019-03-04T21:24:28.514Z,60.31
2019-03-04T21:26:55.430Z,60.19
2019-03-04T21:29:33.719Z,60.12
2019-03-04T21:32:15.129Z,60.37
2019-03-04T21:35:20.741Z,61.68
2019-03-04T21:37:47.781Z,62.03
2019-03-04T21:40:22.721Z,62.70
2019-03-04T21:43:13.897Z,62.97
2019-03-04T21:45:57.332Z,63.05
2019-03-04T21:48:32.389Z,61.72
2019-03-04T21:51:37.612Z,61.73
2019-03-04T21:53:56.008Z,61.79
2019-03-04T21:56:37.151Z,61.56
2019-03-04T21:59:06.385Z,61.22
2019-03-04T22:01:41.513Z,60.37
2019-03-04T22:04:08.290Z,59.99
2019-03-04T22:06:35.425Z,59.64
2019-03-04T22:09:04.034Z,60.24
2019-03-04T22:11:30.875Z,60.78
2019-03-04T22:13:57.623Z,59.51
2019-03-04T22:16:24.397Z,59.81
2019-03-04T22:18:51.131Z,58.39
2019-03-04T22:21:17.846Z,58.44
2019-03-04T22:23:44.723Z,59.59
2019-03-04T22:26:11.442Z,60.71
2019-03-04T22:28:38.333Z,59.48
2019-03-04T22:31:05.164Z,61.02
2019-03-04T22:33:31.912Z,61.12
2019-03-04T22:35:58.650Z,61.82
2019-03-04T22:38:25.473Z,61.73
2019-03-04T22:40:52.281Z,61.88
2019-03-04T22:43:19.021Z,62.29
2019-03-04T22:45:45.762Z,61.70
2019-03-04T22:48:12.545Z,61.22
2019-03-04T22:50:39.262Z,61.71
2019-03-04T22:53:06.131Z,62.22
2019-03-04T22:55:36.991Z,63.03
2019-03-04T22:58:05.414Z,62.79
2019-03-04T23:00:52.781Z,62.88
2019-03-04T23:03:27.283Z,62.84
2019-03-04T23:06:10.584Z,62.96
2019-03-04T23:08:37.315Z,62.93
2019-03-04T23:11:04.063Z,62.98
2019-03-04T23:13:41.589Z,62.96
2019-03-04T23:16:09.421Z,62.74
2019-03-04T23:18:36.138Z,62.75
2019-03-04T23:21:03.212Z,62.82
2019-03-04T23:23:29.949Z,62.69
2019-03-04T23:25:56.753Z,62.57
2019-03-04T23:28:23.486Z,62.66
2019-03-04T23:30:50.218Z,62.67
2019-03-04T23:33:17.030Z,62.51
2019-03-04T23:35:43.771Z,62.39
2019-03-04T23:38:10.505Z,62.18
2019-03-04T23:40:37.285Z,62.23
2019-03-04T23:43:04.025Z,62.05
2019-03-04T23:45:30.982Z,62.07
2019-03-04T23:47:57.766Z,61.88
2019-03-04T23:50:24.476Z,61.74
2019-03-04T23:52:51.317Z,62.01
2019-03-04T23:55:18.881Z,61.91
2019-03-04T23:57:45.610Z,61.77
